sensor_id;sensor_type;location;lat;lon;timestamp;P1;durP1;ratioP1;P2;durP2;ratioP2
6667;SDS011;3370;47.712;9.082;2023-04-01T00:00:30;1.37;;;1.10;;
6667;SDS011;3370;47.712;9.082;2023-04-01T00:02:56;1.13;;;1.10;;
6667;SDS011;3370;47.712;9.082;2023-04-01T00:05:22;2.03;;;1.20;;
6667;SDS011;3370;47.712;9.082;2023-04-01T00:07:49;1.50;;;1.40;;
6667;SDS011;3370;47.712;9.082;2023-04-01T00:10:16;4.00;;;1.13;;
6667;SDS011;3370;47.712;9.082;2023-04-01T00:12:42;3.07;;;1.30;;
6667;SDS011;3370;47.712;9.082;2023-04-01T00:15:09;6.83;;;1.70;;
6667;SDS011;3370;47.712;9.082;2023-04-01T00:17:37;1.37;;;1.27;;
6667;SDS011;3370;47.712;9.082;2023-04-01T00:20:03;1.00;;;0.90;;
6667;SDS011;3370;47.712;9.082;2023-04-01T00:22:30;1.17;;;1.00;;
6667;SDS011;3370;47.712;9.082;2023-04-01T00:24:56;1.73;;;1.30;;
6667;SDS011;3370;47.712;9.082;2023-04-01T00:27:22;1.87;;;1.43;;
6667;SDS011;3370;47.712;9.082;2023-04-01T00:29:48;1.40;;;1.30;;
6667;SDS011;3370;47.712;9.082;2023-04-01T00:32:14;5.07;;;1.13;;
6667;SDS011;3370;47.712;9.082;2023-04-01T00:34:40;2.97;;;1.20;;
6667;SDS011;3370;47.712;9.082;2023-04-01T00:37:06;1.73;;;1.00;;
6667;SDS011;3370;47.712;9.082;2023-04-01T00:39:33;5.40;;;1.77;;
6667;SDS011;3370;47.712;9.082;2023-04-01T00:42:00;2.70;;;1.00;;
6667;SDS011;3370;47.712;9.082;2023-04-01T00:44:31;1.13;;;1.00;;
6667;SDS011;3370;47.712;9.082;2023-04-01T00:46:59;3.13;;;1.50;;
6667;SDS011;3370;47.712;9.082;2023-04-01T00:49:27;0.93;;;0.93;;
6667;SDS011;3370;47.712;9.082;2023-04-01T00:52:02;0.87;;;0.87;;
6667;SDS011;3370;47.712;9.082;2023-04-01T00:54:31;2.47;;;0.90;;
6667;SDS011;3370;47.712;9.082;2023-04-01T00:57:00;1.63;;;1.03;;
6667;SDS011;3370;47.712;9.082;2023-04-01T00:59:44;2.20;;;1.07;;
6667;SDS011;3370;47.712;9.082;2023-04-01T01:02:16;1.80;;;1.20;;
6667;SDS011;3370;47.712;9.082;2023-04-01T01:04:43;2.87;;;1.60;;
6667;SDS011;3370;47.712;9.082;2023-04-01T01:13:18;1.37;;;1.20;;
6667;SDS011;3370;47.712;9.082;2023-04-01T01:24:08;2.07;;;0.97;;
6667;SDS011;3370;47.712;9.082;2023-04-01T01:29:44;0.90;;;0.90;;
6667;SDS011;3370;47.712;9.082;2023-04-01T01:37:44;3.07;;;1.20;;
6667;SDS011;3370;47.712;9.082;2023-04-01T01:40:12;4.07;;;0.93;;
6667;SDS011;3370;47.712;9.082;2023-04-01T01:42:42;2.20;;;1.07;;
6667;SDS011;3370;47.712;9.082;2023-04-01T01:45:14;1.80;;;0.90;;
6667;SDS011;3370;47.712;9.082;2023-04-01T01:47:44;3.60;;;1.13;;
6667;SDS011;3370;47.712;9.082;2023-04-01T01:50:12;3.20;;;1.23;;
6667;SDS011;3370;47.712;9.082;2023-04-01T01:52:40;4.00;;;1.00;;
6667;SDS011;3370;47.712;9.082;2023-04-01T01:55:22;1.10;;;1.03;;
6667;SDS011;3370;47.712;9.082;2023-04-01T01:57:58;2.40;;;1.03;;
6667;SDS011;3370;47.712;9.082;2023-04-01T02:00:29;2.93;;;1.20;;
6667;SDS011;3370;47.712;9.082;2023-04-01T02:02:55;1.87;;;1.10;;
6667;SDS011;3370;47.712;9.082;2023-04-01T02:05:24;6.00;;;1.40;;
6667;SDS011;3370;47.712;9.082;2023-04-01T02:08:00;2.10;;;1.20;;
6667;SDS011;3370;47.712;9.082;2023-04-01T02:10:39;1.17;;;1.07;;
6667;SDS011;3370;47.712;9.082;2023-04-01T02:13:43;1.23;;;0.90;;
6667;SDS011;3370;47.712;9.082;2023-04-01T02:16:12;3.37;;;0.93;;
6667;SDS011;3370;47.712;9.082;2023-04-01T02:18:48;3.70;;;0.77;;
6667;SDS011;3370;47.712;9.082;2023-04-01T02:21:18;1.40;;;1.40;;
6667;SDS011;3370;47.712;9.082;2023-04-01T02:23:47;1.20;;;0.90;;
6667;SDS011;3370;47.712;9.082;2023-04-01T02:26:14;1.20;;;1.20;;
6667;SDS011;3370;47.712;9.082;2023-04-01T02:28:41;1.47;;;1.20;;
6667;SDS011;3370;47.712;9.082;2023-04-01T02:31:10;4.83;;;1.10;;
6667;SDS011;3370;47.712;9.082;2023-04-01T02:33:38;2.43;;;1.17;;
6667;SDS011;3370;47.712;9.082;2023-04-01T02:36:05;3.13;;;1.30;;
6667;SDS011;3370;47.712;9.082;2023-04-01T02:38:35;2.40;;;1.13;;
6667;SDS011;3370;47.712;9.082;2023-04-01T02:41:01;4.10;;;1.13;;
6667;SDS011;3370;47.712;9.082;2023-04-01T02:43:28;1.67;;;1.10;;
6667;SDS011;3370;47.712;9.082;2023-04-01T02:45:54;4.80;;;1.20;;
6667;SDS011;3370;47.712;9.082;2023-04-01T02:48:20;4.13;;;1.03;;
6667;SDS011;3370;47.712;9.082;2023-04-01T02:50:45;1.60;;;1.50;;
6667;SDS011;3370;47.712;9.082;2023-04-01T02:53:11;2.13;;;1.37;;
6667;SDS011;3370;47.712;9.082;2023-04-01T02:55:37;1.13;;;0.90;;
6667;SDS011;3370;47.712;9.082;2023-04-01T02:58:03;2.23;;;1.00;;
6667;SDS011;3370;47.712;9.082;2023-04-01T03:00:29;1.57;;;1.47;;
6667;SDS011;3370;47.712;9.082;2023-04-01T03:02:55;3.57;;;1.47;;
6667;SDS011;3370;47.712;9.082;2023-04-01T03:05:21;2.00;;;1.30;;
6667;SDS011;3370;47.712;9.082;2023-04-01T03:07:47;1.37;;;1.27;;
6667;SDS011;3370;47.712;9.082;2023-04-01T03:10:13;3.70;;;1.30;;
6667;SDS011;3370;47.712;9.082;2023-04-01T03:12:39;5.57;;;1.23;;
6667;SDS011;3370;47.712;9.082;2023-04-01T03:15:05;2.20;;;1.27;;
6667;SDS011;3370;47.712;9.082;2023-04-01T03:17:32;5.30;;;1.60;;
6667;SDS011;3370;47.712;9.082;2023-04-01T03:19:57;2.00;;;1.33;;
6667;SDS011;3370;47.712;9.082;2023-04-01T03:22:23;6.90;;;1.80;;
6667;SDS011;3370;47.712;9.082;2023-04-01T03:24:49;5.30;;;1.60;;
6667;SDS011;3370;47.712;9.082;2023-04-01T03:27:15;1.57;;;1.03;;
6667;SDS011;3370;47.712;9.082;2023-04-01T03:29:41;2.20;;;1.33;;
6667;SDS011;3370;47.712;9.082;2023-04-01T03:32:06;3.87;;;1.23;;
6667;SDS011;3370;47.712;9.082;2023-04-01T03:34:32;6.20;;;1.77;;
6667;SDS011;3370;47.712;9.082;2023-04-01T03:36:58;1.90;;;1.10;;
6667;SDS011;3370;47.712;9.082;2023-04-01T03:39:24;6.20;;;1.90;;
6667;SDS011;3370;47.712;9.082;2023-04-01T03:41:50;3.43;;;1.30;;
6667;SDS011;3370;47.712;9.082;2023-04-01T03:44:15;5.33;;;1.10;;
6667;SDS011;3370;47.712;9.082;2023-04-01T03:46:41;1.90;;;1.10;;
6667;SDS011;3370;47.712;9.082;2023-04-01T03:49:08;4.50;;;1.10;;
6667;SDS011;3370;47.712;9.082;2023-04-01T03:51:40;4.33;;;1.57;;
6667;SDS011;3370;47.712;9.082;2023-04-01T03:54:09;2.57;;;1.40;;
6667;SDS011;3370;47.712;9.082;2023-04-01T03:56:36;1.73;;;1.20;;
6667;SDS011;3370;47.712;9.082;2023-04-01T03:59:03;8.33;;;1.37;;
6667;SDS011;3370;47.712;9.082;2023-04-01T04:01:31;7.80;;;1.50;;
6667;SDS011;3370;47.712;9.082;2023-04-01T04:03:57;4.43;;;1.90;;
6667;SDS011;3370;47.712;9.082;2023-04-01T04:06:23;3.63;;;1.70;;
6667;SDS011;3370;47.712;9.082;2023-04-01T04:08:50;3.40;;;1.73;;
6667;SDS011;3370;47.712;9.082;2023-04-01T04:11:16;5.83;;;1.47;;
6667;SDS011;3370;47.712;9.082;2023-04-01T04:13:45;3.07;;;1.40;;
6667;SDS011;3370;47.712;9.082;2023-04-01T04:16:12;6.33;;;2.40;;
6667;SDS011;3370;47.712;9.082;2023-04-01T04:18:39;4.47;;;1.50;;
6667;SDS011;3370;47.712;9.082;2023-04-01T04:21:05;3.07;;;1.30;;
6667;SDS011;3370;47.712;9.082;2023-04-01T04:23:31;4.73;;;1.53;;
6667;SDS011;3370;47.712;9.082;2023-04-01T04:26:02;2.90;;;1.23;;
6667;SDS011;3370;47.712;9.082;2023-04-01T04:28:32;7.23;;;1.40;;
6667;SDS011;3370;47.712;9.082;2023-04-01T04:30:58;1.40;;;1.30;;
6667;SDS011;3370;47.712;9.082;2023-04-01T04:33:24;4.13;;;1.53;;
6667;SDS011;3370;47.712;9.082;2023-04-01T04:35:51;4.67;;;1.53;;
6667;SDS011;3370;47.712;9.082;2023-04-01T04:38:19;2.17;;;1.20;;
6667;SDS011;3370;47.712;9.082;2023-04-01T04:40:45;5.47;;;1.73;;
6667;SDS011;3370;47.712;9.082;2023-04-01T04:43:11;6.30;;;1.50;;
6667;SDS011;3370;47.712;9.082;2023-04-01T04:45:39;4.57;;;1.43;;
6667;SDS011;3370;47.712;9.082;2023-04-01T04:48:09;3.07;;;1.33;;
6667;SDS011;3370;47.712;9.082;2023-04-01T04:50:45;1.80;;;1.10;;
6667;SDS011;3370;47.712;9.082;2023-04-01T04:53:13;1.40;;;1.00;;
6667;SDS011;3370;47.712;9.082;2023-04-01T04:55:44;1.10;;;1.00;;
6667;SDS011;3370;47.712;9.082;2023-04-01T04:58:12;2.93;;;1.30;;
6667;SDS011;3370;47.712;9.082;2023-04-01T05:00:37;1.70;;;1.13;;
6667;SDS011;3370;47.712;9.082;2023-04-01T05:03:03;4.50;;;1.30;;
6667;SDS011;3370;47.712;9.082;2023-04-01T05:05:29;3.07;;;1.43;;
6667;SDS011;3370;47.712;9.082;2023-04-01T05:07:55;3.33;;;1.20;;
6667;SDS011;3370;47.712;9.082;2023-04-01T05:10:21;2.77;;;1.27;;
6667;SDS011;3370;47.712;9.082;2023-04-01T05:12:47;3.53;;;1.20;;
6667;SDS011;3370;47.712;9.082;2023-04-01T05:15:12;2.47;;;1.30;;
6667;SDS011;3370;47.712;9.082;2023-04-01T05:17:38;6.70;;;1.63;;
6667;SDS011;3370;47.712;9.082;2023-04-01T05:20:04;7.27;;;1.60;;
6667;SDS011;3370;47.712;9.082;2023-04-01T05:22:31;3.63;;;1.13;;
6667;SDS011;3370;47.712;9.082;2023-04-01T05:24:57;2.40;;;1.53;;
6667;SDS011;3370;47.712;9.082;2023-04-01T05:27:23;5.50;;;1.83;;
6667;SDS011;3370;47.712;9.082;2023-04-01T05:29:48;4.00;;;1.40;;
6667;SDS011;3370;47.712;9.082;2023-04-01T05:32:14;6.03;;;1.50;;
6667;SDS011;3370;47.712;9.082;2023-04-01T05:34:40;7.20;;;1.40;;
6667;SDS011;3370;47.712;9.082;2023-04-01T05:37:06;5.03;;;1.33;;
6667;SDS011;3370;47.712;9.082;2023-04-01T05:39:36;2.50;;;1.30;;
6667;SDS011;3370;47.712;9.082;2023-04-01T05:42:03;1.90;;;0.80;;
6667;SDS011;3370;47.712;9.082;2023-04-01T05:44:31;2.27;;;1.30;;
6667;SDS011;3370;47.712;9.082;2023-04-01T05:46:57;3.97;;;1.00;;
6667;SDS011;3370;47.712;9.082;2023-04-01T05:49:22;2.20;;;1.00;;
6667;SDS011;3370;47.712;9.082;2023-04-01T05:51:48;1.33;;;0.87;;
6667;SDS011;3370;47.712;9.082;2023-04-01T05:54:14;3.23;;;1.23;;
6667;SDS011;3370;47.712;9.082;2023-04-01T05:56:39;3.77;;;1.17;;
6667;SDS011;3370;47.712;9.082;2023-04-01T05:59:05;1.23;;;1.00;;
6667;SDS011;3370;47.712;9.082;2023-04-01T06:01:31;1.77;;;1.03;;
6667;SDS011;3370;47.712;9.082;2023-04-01T06:03:57;1.80;;;1.07;;
6667;SDS011;3370;47.712;9.082;2023-04-01T06:06:26;0.90;;;0.90;;
6667;SDS011;3370;47.712;9.082;2023-04-01T06:08:54;2.47;;;1.10;;
6667;SDS011;3370;47.712;9.082;2023-04-01T06:25:38;1.23;;;1.23;;
6667;SDS011;3370;47.712;9.082;2023-04-01T06:31:25;2.80;;;0.93;;
6667;SDS011;3370;47.712;9.082;2023-04-01T06:34:08;1.03;;;0.93;;
6667;SDS011;3370;47.712;9.082;2023-04-01T06:42:57;1.10;;;1.00;;
6667;SDS011;3370;47.712;9.082;2023-04-01T06:45:59;1.00;;;0.90;;
6667;SDS011;3370;47.712;9.082;2023-04-01T06:54:34;2.30;;;0.93;;
6667;SDS011;3370;47.712;9.082;2023-04-01T06:57:28;1.90;;;1.00;;
6667;SDS011;3370;47.712;9.082;2023-04-01T07:00:05;0.97;;;0.97;;
6667;SDS011;3370;47.712;9.082;2023-04-01T07:05:38;1.77;;;0.97;;
6667;SDS011;3370;47.712;9.082;2023-04-01T07:08:06;3.23;;;0.87;;
6667;SDS011;3370;47.712;9.082;2023-04-01T07:11:11;1.00;;;1.00;;
6667;SDS011;3370;47.712;9.082;2023-04-01T07:13:52;2.90;;;1.10;;
6667;SDS011;3370;47.712;9.082;2023-04-01T07:19:52;2.93;;;0.90;;
6667;SDS011;3370;47.712;9.082;2023-04-01T07:22:45;1.00;;;0.90;;
6667;SDS011;3370;47.712;9.082;2023-04-01T07:25:18;1.43;;;1.17;;
6667;SDS011;3370;47.712;9.082;2023-04-01T07:27:50;2.23;;;0.93;;
6667;SDS011;3370;47.712;9.082;2023-04-01T07:30:22;1.60;;;0.77;;
6667;SDS011;3370;47.712;9.082;2023-04-01T07:36:08;0.80;;;0.80;;
6667;SDS011;3370;47.712;9.082;2023-04-01T07:44:47;1.20;;;1.10;;
6667;SDS011;3370;47.712;9.082;2023-04-01T07:53:46;0.80;;;0.80;;
6667;SDS011;3370;47.712;9.082;2023-04-01T07:57:08;2.00;;;1.00;;
6667;SDS011;3370;47.712;9.082;2023-04-01T08:00:07;1.30;;;0.70;;
6667;SDS011;3370;47.712;9.082;2023-04-01T08:05:46;1.43;;;0.83;;
6667;SDS011;3370;47.712;9.082;2023-04-01T08:17:05;0.93;;;0.93;;
6667;SDS011;3370;47.712;9.082;2023-04-01T08:23:18;4.47;;;1.00;;
6667;SDS011;3370;47.712;9.082;2023-04-01T08:25:58;1.00;;;1.00;;
6667;SDS011;3370;47.712;9.082;2023-04-01T08:34:23;0.70;;;0.70;;
6667;SDS011;3370;47.712;9.082;2023-04-01T08:37:05;1.87;;;0.70;;
6667;SDS011;3370;47.712;9.082;2023-04-01T08:39:50;0.73;;;0.73;;
6667;SDS011;3370;47.712;9.082;2023-04-01T08:45:14;1.10;;;1.00;;
6667;SDS011;3370;47.712;9.082;2023-04-01T08:51:26;0.67;;;0.67;;
6667;SDS011;3370;47.712;9.082;2023-04-01T08:57:13;0.70;;;0.70;;
6667;SDS011;3370;47.712;9.082;2023-04-01T09:24:26;0.53;;;0.53;;
6667;SDS011;3370;47.712;9.082;2023-04-01T09:27:28;0.83;;;0.80;;
6667;SDS011;3370;47.712;9.082;2023-04-01T09:36:26;1.23;;;0.73;;
6667;SDS011;3370;47.712;9.082;2023-04-01T09:39:17;0.90;;;0.90;;
6667;SDS011;3370;47.712;9.082;2023-04-01T10:00:21;0.90;;;0.90;;
6667;SDS011;3370;47.712;9.082;2023-04-01T10:11:01;0.93;;;0.80;;
6667;SDS011;3370;47.712;9.082;2023-04-01T10:19:55;0.67;;;0.67;;
6667;SDS011;3370;47.712;9.082;2023-04-01T10:26:09;0.90;;;0.90;;
6667;SDS011;3370;47.712;9.082;2023-04-01T10:29:24;0.87;;;0.87;;
6667;SDS011;3370;47.712;9.082;2023-04-01T10:54:07;0.80;;;0.80;;
6667;SDS011;3370;47.712;9.082;2023-04-01T10:56:51;1.27;;;0.87;;
6667;SDS011;3370;47.712;9.082;2023-04-01T11:05:50;0.70;;;0.70;;
6667;SDS011;3370;47.712;9.082;2023-04-01T11:17:36;2.67;;;1.00;;
6667;SDS011;3370;47.712;9.082;2023-04-01T11:20:22;0.60;;;0.60;;
6667;SDS011;3370;47.712;9.082;2023-04-01T11:26:19;1.07;;;0.80;;
6667;SDS011;3370;47.712;9.082;2023-04-01T11:38:15;1.43;;;0.83;;
6667;SDS011;3370;47.712;9.082;2023-04-01T11:41:13;0.73;;;0.60;;
6667;SDS011;3370;47.712;9.082;2023-04-01T11:44:16;1.53;;;0.90;;
6667;SDS011;3370;47.712;9.082;2023-04-01T12:01:43;1.07;;;0.90;;
6667;SDS011;3370;47.712;9.082;2023-04-01T12:04:33;1.67;;;0.77;;
6667;SDS011;3370;47.712;9.082;2023-04-01T12:07:44;0.70;;;0.70;;
6667;SDS011;3370;47.712;9.082;2023-04-01T12:13:42;0.73;;;0.73;;
6667;SDS011;3370;47.712;9.082;2023-04-01T12:16:39;0.73;;;0.73;;
6667;SDS011;3370;47.712;9.082;2023-04-01T12:28:06;0.70;;;0.70;;
6667;SDS011;3370;47.712;9.082;2023-04-01T12:37:00;0.70;;;0.70;;
6667;SDS011;3370;47.712;9.082;2023-04-01T13:03:43;0.90;;;0.77;;
6667;SDS011;3370;47.712;9.082;2023-04-01T13:07:13;0.60;;;0.60;;
6667;SDS011;3370;47.712;9.082;2023-04-01T13:13:11;0.87;;;0.87;;
6667;SDS011;3370;47.712;9.082;2023-04-01T13:21:50;0.70;;;0.70;;
6667;SDS011;3370;47.712;9.082;2023-04-01T13:24:40;0.80;;;0.80;;
6667;SDS011;3370;47.712;9.082;2023-04-01T13:27:21;0.60;;;0.60;;
6667;SDS011;3370;47.712;9.082;2023-04-01T13:33:04;0.80;;;0.80;;
6667;SDS011;3370;47.712;9.082;2023-04-01T13:39:19;0.80;;;0.80;;
6667;SDS011;3370;47.712;9.082;2023-04-01T13:42:19;0.90;;;0.90;;
6667;SDS011;3370;47.712;9.082;2023-04-01T13:54:30;0.73;;;0.73;;
6667;SDS011;3370;47.712;9.082;2023-04-01T14:06:09;0.77;;;0.77;;
6667;SDS011;3370;47.712;9.082;2023-04-01T14:09:24;0.90;;;0.80;;
6667;SDS011;3370;47.712;9.082;2023-04-01T14:12:31;0.70;;;0.70;;
6667;SDS011;3370;47.712;9.082;2023-04-01T14:24:23;0.70;;;0.70;;
6667;SDS011;3370;47.712;9.082;2023-04-01T14:35:55;1.40;;;1.10;;
6667;SDS011;3370;47.712;9.082;2023-04-01T14:47:24;1.10;;;1.00;;
6667;SDS011;3370;47.712;9.082;2023-04-01T14:50:18;0.87;;;0.80;;
6667;SDS011;3370;47.712;9.082;2023-04-01T14:52:57;2.10;;;1.10;;
6667;SDS011;3370;47.712;9.082;2023-04-01T15:03:38;0.90;;;0.90;;
6667;SDS011;3370;47.712;9.082;2023-04-01T15:09:40;0.73;;;0.73;;
6667;SDS011;3370;47.712;9.082;2023-04-01T15:15:24;1.33;;;0.93;;
6667;SDS011;3370;47.712;9.082;2023-04-01T15:24:24;0.90;;;0.90;;
6667;SDS011;3370;47.712;9.082;2023-04-01T15:39:24;0.80;;;0.70;;
6667;SDS011;3370;47.712;9.082;2023-04-01T15:49:53;0.70;;;0.70;;
6667;SDS011;3370;47.712;9.082;2023-04-01T15:52:43;1.63;;;0.67;;
6667;SDS011;3370;47.712;9.082;2023-04-01T15:58:20;0.67;;;0.67;;
6667;SDS011;3370;47.712;9.082;2023-04-01T16:09:51;0.53;;;0.50;;
6667;SDS011;3370;47.712;9.082;2023-04-01T16:12:48;0.87;;;0.80;;
6667;SDS011;3370;47.712;9.082;2023-04-01T16:28:36;0.60;;;0.60;;
6667;SDS011;3370;47.712;9.082;2023-04-01T16:37:05;0.60;;;0.60;;
6667;SDS011;3370;47.712;9.082;2023-04-01T16:39:54;0.70;;;0.70;;
6667;SDS011;3370;47.712;9.082;2023-04-01T16:42:51;0.60;;;0.60;;
6667;SDS011;3370;47.712;9.082;2023-04-01T16:48:12;1.30;;;0.80;;
6667;SDS011;3370;47.712;9.082;2023-04-01T16:53:41;0.90;;;0.90;;
6667;SDS011;3370;47.712;9.082;2023-04-01T16:56:23;1.00;;;1.00;;
6667;SDS011;3370;47.712;9.082;2023-04-01T17:02:02;0.80;;;0.80;;
6667;SDS011;3370;47.712;9.082;2023-04-01T17:13:27;1.90;;;0.80;;
6667;SDS011;3370;47.712;9.082;2023-04-01T17:19:24;0.83;;;0.83;;
6667;SDS011;3370;47.712;9.082;2023-04-01T17:22:12;1.17;;;1.10;;
6667;SDS011;3370;47.712;9.082;2023-04-01T17:27:36;0.90;;;0.90;;
6667;SDS011;3370;47.712;9.082;2023-04-01T17:30:31;1.70;;;1.10;;
6667;SDS011;3370;47.712;9.082;2023-04-01T17:39:20;1.50;;;0.90;;
6667;SDS011;3370;47.712;9.082;2023-04-01T17:42:06;0.80;;;0.80;;
6667;SDS011;3370;47.712;9.082;2023-04-01T17:47:49;0.73;;;0.73;;
6667;SDS011;3370;47.712;9.082;2023-04-01T17:51:04;1.00;;;0.80;;
6667;SDS011;3370;47.712;9.082;2023-04-01T17:53:57;1.67;;;0.90;;
6667;SDS011;3370;47.712;9.082;2023-04-01T18:00:00;1.73;;;1.00;;
6667;SDS011;3370;47.712;9.082;2023-04-01T18:11:54;0.77;;;0.77;;
6667;SDS011;3370;47.712;9.082;2023-04-01T18:23:41;0.80;;;0.70;;
6667;SDS011;3370;47.712;9.082;2023-04-01T18:26:34;0.73;;;0.73;;
6667;SDS011;3370;47.712;9.082;2023-04-01T18:29:04;1.20;;;1.00;;
6667;SDS011;3370;47.712;9.082;2023-04-01T18:32:08;1.20;;;1.10;;
6667;SDS011;3370;47.712;9.082;2023-04-01T18:35:19;1.07;;;1.00;;
6667;SDS011;3370;47.712;9.082;2023-04-01T18:38:13;1.60;;;1.00;;
6667;SDS011;3370;47.712;9.082;2023-04-01T18:41:15;1.17;;;0.80;;
6667;SDS011;3370;47.712;9.082;2023-04-01T18:43:54;2.00;;;0.90;;
6667;SDS011;3370;47.712;9.082;2023-04-01T18:46:57;0.93;;;0.93;;
6667;SDS011;3370;47.712;9.082;2023-04-01T18:49:39;1.37;;;1.37;;
6667;SDS011;3370;47.712;9.082;2023-04-01T18:55:14;0.90;;;0.90;;
6667;SDS011;3370;47.712;9.082;2023-04-01T19:00:44;0.93;;;0.93;;
6667;SDS011;3370;47.712;9.082;2023-04-01T19:06:57;1.77;;;0.87;;
6667;SDS011;3370;47.712;9.082;2023-04-01T19:09:26;1.23;;;1.07;;
6667;SDS011;3370;47.712;9.082;2023-04-01T19:12:18;0.80;;;0.80;;
6667;SDS011;3370;47.712;9.082;2023-04-01T19:24:07;0.80;;;0.80;;
6667;SDS011;3370;47.712;9.082;2023-04-01T19:29:52;2.70;;;1.37;;
6667;SDS011;3370;47.712;9.082;2023-04-01T19:32:45;2.43;;;1.83;;
6667;SDS011;3370;47.712;9.082;2023-04-01T19:36:15;1.03;;;0.90;;
6667;SDS011;3370;47.712;9.082;2023-04-01T19:50:47;4.70;;;1.17;;
6667;SDS011;3370;47.712;9.082;2023-04-01T19:53:45;1.30;;;1.07;;
6667;SDS011;3370;47.712;9.082;2023-04-01T19:56:24;1.27;;;0.90;;
6667;SDS011;3370;47.712;9.082;2023-04-01T20:08:44;1.00;;;0.90;;
6667;SDS011;3370;47.712;9.082;2023-04-01T20:11:14;1.27;;;1.10;;
6667;SDS011;3370;47.712;9.082;2023-04-01T20:16:39;1.30;;;1.03;;
6667;SDS011;3370;47.712;9.082;2023-04-01T20:19:13;2.20;;;1.30;;
6667;SDS011;3370;47.712;9.082;2023-04-01T20:21:49;1.50;;;1.27;;
6667;SDS011;3370;47.712;9.082;2023-04-01T20:36:06;1.07;;;1.00;;
6667;SDS011;3370;47.712;9.082;2023-04-01T20:44:42;1.00;;;1.00;;
6667;SDS011;3370;47.712;9.082;2023-04-01T20:50:40;1.50;;;1.43;;
6667;SDS011;3370;47.712;9.082;2023-04-01T20:53:50;1.20;;;1.20;;
6667;SDS011;3370;47.712;9.082;2023-04-01T20:56:45;4.23;;;1.20;;
6667;SDS011;3370;47.712;9.082;2023-04-01T21:02:26;1.73;;;1.00;;
6667;SDS011;3370;47.712;9.082;2023-04-01T21:07:57;1.20;;;1.20;;
6667;SDS011;3370;47.712;9.082;2023-04-01T21:11:01;1.70;;;1.27;;
6667;SDS011;3370;47.712;9.082;2023-04-01T21:14:01;1.10;;;1.10;;
6667;SDS011;3370;47.712;9.082;2023-04-01T21:20:18;2.83;;;1.50;;
6667;SDS011;3370;47.712;9.082;2023-04-01T21:29:22;1.10;;;1.10;;
6667;SDS011;3370;47.712;9.082;2023-04-01T21:32:19;1.47;;;1.00;;
6667;SDS011;3370;47.712;9.082;2023-04-01T21:44:48;1.50;;;1.17;;
6667;SDS011;3370;47.712;9.082;2023-04-01T21:50:41;2.90;;;1.43;;
6667;SDS011;3370;47.712;9.082;2023-04-01T21:53:50;3.70;;;1.40;;
6667;SDS011;3370;47.712;9.082;2023-04-01T22:02:33;1.97;;;1.77;;
6667;SDS011;3370;47.712;9.082;2023-04-01T22:06:09;1.70;;;1.60;;
6667;SDS011;3370;47.712;9.082;2023-04-01T22:08:59;3.20;;;1.57;;
6667;SDS011;3370;47.712;9.082;2023-04-01T22:17:52;2.97;;;1.80;;
6667;SDS011;3370;47.712;9.082;2023-04-01T22:32:27;1.83;;;1.37;;
6667;SDS011;3370;47.712;9.082;2023-04-01T22:35:12;1.07;;;1.07;;
6667;SDS011;3370;47.712;9.082;2023-04-01T22:50:19;1.03;;;1.03;;
6667;SDS011;3370;47.712;9.082;2023-04-01T22:56:28;1.33;;;1.23;;
6667;SDS011;3370;47.712;9.082;2023-04-01T22:59:14;1.17;;;1.17;;
6667;SDS011;3370;47.712;9.082;2023-04-01T23:02:17;1.27;;;1.17;;
6667;SDS011;3370;47.712;9.082;2023-04-01T23:04:59;1.10;;;1.00;;
6667;SDS011;3370;47.712;9.082;2023-04-01T23:10:26;1.47;;;1.10;;
6667;SDS011;3370;47.712;9.082;2023-04-01T23:13:10;1.40;;;1.33;;
6667;SDS011;3370;47.712;9.082;2023-04-01T23:15:43;1.13;;;1.00;;
6667;SDS011;3370;47.712;9.082;2023-04-01T23:18:14;1.03;;;1.03;;
6667;SDS011;3370;47.712;9.082;2023-04-01T23:24:14;1.33;;;1.23;;
6667;SDS011;3370;47.712;9.082;2023-04-01T23:29:41;0.97;;;0.97;;
6667;SDS011;3370;47.712;9.082;2023-04-01T23:32:17;1.20;;;1.10;;
6667;SDS011;3370;47.712;9.082;2023-04-01T23:34:47;2.00;;;1.20;;
6667;SDS011;3370;47.712;9.082;2023-04-01T23:37:17;1.87;;;1.10;;
6667;SDS011;3370;47.712;9.082;2023-04-01T23:39:45;3.10;;;1.17;;
6667;SDS011;3370;47.712;9.082;2023-04-01T23:42:18;0.83;;;0.83;;
6667;SDS011;3370;47.712;9.082;2023-04-01T23:44:49;1.43;;;1.20;;
6667;SDS011;3370;47.712;9.082;2023-04-01T23:47:20;1.33;;;0.90;;
6667;SDS011;3370;47.712;9.082;2023-04-01T23:50:12;2.93;;;1.03;;
6667;SDS011;3370;47.712;9.082;2023-04-01T23:53:04;1.13;;;0.87;;
6667;SDS011;3370;47.712;9.082;2023-04-01T23:55:48;1.87;;;1.20;;
